USNS Comfort — NCOM — position and weather

sailwx.info

Track history (hours):
 
Tides and Currents Weather Stations Pressure Air Temp Water Temp Dewpoint Dewpoint Depression Visibility Wind Speed Wind Dir Waves Ship Positions

USNS Comfort

Last reported at 2017-Sep-29 22:35 UTC. Time now 2017-Oct-22 19:19 UTC.
Position N 36°56' W 075°46'.
Warning: this ship's position is 22 days out of date.

Length 273 m; draft 8.9 m.

Type: Medical transport. MMSI: 368817000.

Date/timePositionNaut miles runAvg speedWind from/ knotsBaromVisibWave heightAir tempDewpointWater temp
2017-Sep-29 22:35N 36°56' W 075°46'7 5.3
2017-Sep-29 21:19N 36°49' W 075°45'5 9.6
2017-Sep-29 20:49N 36°51' W 075°50'511.2
2017-Sep-29 20:21N 36°54' W 075°55'310.3
2017-Sep-29 20:00N 36°56' W 075°59'5 9.7
2017-Sep-29 19:30N 36°58' W 076°05'12 9.7
2017-Sep-29 18:14N 36°57' W 076°20'1 5.8
2017-Sep-29 18:00N 36°56' W 076°20'  
2017-Sep-24 14:29N 36°56' W 076°20'0 0.0
2017-Sep-24 13:59N 36°56' W 076°20'0 0.0
2017-Sep-24 13:29N 36°56' W 076°20'0 0.0
2017-Sep-24 12:59N 36°56' W 076°20'0 0.0
2017-Sep-24 12:23N 36°56' W 076°20'0 0.0
2017-Sep-24 11:11N 36°56' W 076°20'0 0.0
2017-Sep-24 10:59N 36°56' W 076°20'0 0.0
2017-Sep-24 10:05N 36°56' W 076°20'0 0.0
2017-Sep-24 09:59N 36°56' W 076°20'0 0.0
2017-Sep-24 05:05N 36°56' W 076°20'  
2017-Sep-21 14:25N 36°56' W 076°20'0 0.0
2017-Sep-21 08:52N 36°56' W 076°20'0 0.0
2017-Sep-21 08:28N 36°56' W 076°20'0 0.0
2017-Sep-21 07:55N 36°56' W 076°20'0 0.0
2017-Sep-21 07:16N 36°56' W 076°20'0 0.0
2017-Sep-21 06:46N 36°56' W 076°20'0 0.0
2017-Sep-21 06:16N 36°56' W 076°20'0 0.0
2017-Sep-21 05:55N 36°56' W 076°20'0 0.0
2017-Sep-21 05:28N 36°56' W 076°20'0 0.0
2017-Sep-21 04:49N 36°56' W 076°20'0 0.0
2017-Sep-21 04:28N 36°56' W 076°20'0 0.0
2017-Sep-21 03:58N 36°56' W 076°20'0 0.0
2017-Sep-21 03:28N 36°56' W 076°20'0 0.0
2017-Sep-21 02:58N 36°56' W 076°20'0 0.0
2017-Sep-21 02:28N 36°56' W 076°20'0 0.0
2017-Sep-21 01:52N 36°56' W 076°20'0 0.0
2017-Sep-21 01:22N 36°56' W 076°20'0 0.0
2017-Sep-21 00:58N 36°56' W 076°20'0 0.0
2017-Sep-21 00:25N 36°56' W 076°20'0 0.0
2017-Sep-20 23:46N 36°56' W 076°20'0 0.0
2017-Sep-20 23:22N 36°56' W 076°20'0 0.0
2017-Sep-20 22:49N 36°56' W 076°20'0 0.0
2017-Sep-20 22:22N 36°56' W 076°20'0 0.0
2017-Sep-20 21:58N 36°56' W 076°20'0 0.0
2017-Sep-20 21:25N 36°56' W 076°20'0 0.0
2017-Sep-20 20:55N 36°56' W 076°20'0 0.0
2017-Sep-20 20:16N 36°56' W 076°20'0 0.0
2017-Sep-20 19:43N 36°56' W 076°20'0 0.0
2017-Sep-20 18:34N 36°56' W 076°20'0 0.0
2017-Sep-20 18:25N 36°56' W 076°20'0 0.0
2017-Sep-20 17:52N 36°56' W 076°20'0 0.0
2017-Sep-20 16:52N 36°56' W 076°20'0 0.0
2017-Sep-20 16:28N 36°56' W 076°20'0 0.0
2017-Sep-20 15:58N 36°56' W 076°20'0 0.0
2017-Sep-20 15:28N 36°56' W 076°20'0 0.0
2017-Sep-20 14:52N 36°56' W 076°20'0 0.0
2017-Sep-20 13:58N 36°56' W 076°20'0 0.0
2017-Sep-20 13:28N 36°56' W 076°20'0 0.0
2017-Sep-20 12:55N 36°56' W 076°20'0 0.0
2017-Sep-20 12:28N 36°56' W 076°20'0 0.0
2017-Sep-20 11:58N 36°56' W 076°20'0 0.0
2017-Sep-20 11:28N 36°56' W 076°20'0 0.0
2017-Sep-20 10:58N 36°56' W 076°20'0 0.0
2017-Sep-20 10:25N 36°56' W 076°20'0 0.0
2017-Sep-20 09:58N 36°56' W 076°20'0 0.0
2017-Sep-20 09:10N 36°56' W 076°20'0 0.0
2017-Sep-20 08:52N 36°56' W 076°20'0 0.0
2017-Sep-20 08:28N 36°56' W 076°20'0 0.0
2017-Sep-20 03:40N 36°56' W 076°20'0 0.0
2017-Sep-20 03:28N 36°56' W 076°20'0 0.0
2017-Sep-20 02:34N 36°56' W 076°20'  
Track history (hours):
 
Tides and Currents Weather Stations Pressure Air Temp Water Temp Dewpoint Dewpoint Depression Visibility Wind Speed Wind Dir Waves Ship Positions

USNS Comfort

Last reported at 2017-Sep-29 22:35 UTC. Time now 2017-Oct-22 19:19 UTC.
Position N 36°56' W 075°46'.
Warning: this ship's position is 22 days out of date.

Length 273 m; draft 8.9 m.

Type: Medical transport. MMSI: 368817000.

Date/timePositionNaut miles runAvg speedWind from/ knotsBaromVisibWave heightAir tempDewpointWater temp
2017-Sep-29 22:35N 36°56' W 075°46'7 5.3
2017-Sep-29 21:19N 36°49' W 075°45'5 9.6
2017-Sep-29 20:49N 36°51' W 075°50'511.2
2017-Sep-29 20:21N 36°54' W 075°55'310.3
2017-Sep-29 20:00N 36°56' W 075°59'5 9.7
2017-Sep-29 19:30N 36°58' W 076°05'12 9.7
2017-Sep-29 18:14N 36°57' W 076°20'1 5.8
2017-Sep-29 18:00N 36°56' W 076°20'  
2017-Sep-24 14:29N 36°56' W 076°20'0 0.0
2017-Sep-24 13:59N 36°56' W 076°20'0 0.0
2017-Sep-24 13:29N 36°56' W 076°20'0 0.0
2017-Sep-24 12:59N 36°56' W 076°20'0 0.0
2017-Sep-24 12:23N 36°56' W 076°20'0 0.0
2017-Sep-24 11:11N 36°56' W 076°20'0 0.0
2017-Sep-24 10:59N 36°56' W 076°20'0 0.0
2017-Sep-24 10:05N 36°56' W 076°20'0 0.0
2017-Sep-24 09:59N 36°56' W 076°20'0 0.0
2017-Sep-24 05:05N 36°56' W 076°20'  
2017-Sep-21 14:25N 36°56' W 076°20'0 0.0
2017-Sep-21 08:52N 36°56' W 076°20'0 0.0
2017-Sep-21 08:28N 36°56' W 076°20'0 0.0
2017-Sep-21 07:55N 36°56' W 076°20'0 0.0
2017-Sep-21 07:16N 36°56' W 076°20'0 0.0
2017-Sep-21 06:46N 36°56' W 076°20'0 0.0
2017-Sep-21 06:16N 36°56' W 076°20'0 0.0
2017-Sep-21 05:55N 36°56' W 076°20'0 0.0
2017-Sep-21 05:28N 36°56' W 076°20'0 0.0
2017-Sep-21 04:49N 36°56' W 076°20'0 0.0
2017-Sep-21 04:28N 36°56' W 076°20'0 0.0
2017-Sep-21 03:58N 36°56' W 076°20'0 0.0
2017-Sep-21 03:28N 36°56' W 076°20'0 0.0
2017-Sep-21 02:58N 36°56' W 076°20'0 0.0
2017-Sep-21 02:28N 36°56' W 076°20'0 0.0
2017-Sep-21 01:52N 36°56' W 076°20'0 0.0
2017-Sep-21 01:22N 36°56' W 076°20'0 0.0
2017-Sep-21 00:58N 36°56' W 076°20'0 0.0
2017-Sep-21 00:25N 36°56' W 076°20'0 0.0
2017-Sep-20 23:46N 36°56' W 076°20'0 0.0
2017-Sep-20 23:22N 36°56' W 076°20'0 0.0
2017-Sep-20 22:49N 36°56' W 076°20'0 0.0
2017-Sep-20 22:22N 36°56' W 076°20'0 0.0
2017-Sep-20 21:58N 36°56' W 076°20'0 0.0
2017-Sep-20 21:25N 36°56' W 076°20'0 0.0
2017-Sep-20 20:55N 36°56' W 076°20'0 0.0
2017-Sep-20 20:16N 36°56' W 076°20'0 0.0
2017-Sep-20 19:43N 36°56' W 076°20'0 0.0
2017-Sep-20 18:34N 36°56' W 076°20'0 0.0
2017-Sep-20 18:25N 36°56' W 076°20'0 0.0
2017-Sep-20 17:52N 36°56' W 076°20'0 0.0
2017-Sep-20 16:52N 36°56' W 076°20'0 0.0
2017-Sep-20 16:28N 36°56' W 076°20'0 0.0
2017-Sep-20 15:58N 36°56' W 076°20'0 0.0
2017-Sep-20 15:28N 36°56' W 076°20'0 0.0
2017-Sep-20 14:52N 36°56' W 076°20'0 0.0
2017-Sep-20 13:58N 36°56' W 076°20'0 0.0
2017-Sep-20 13:28N 36°56' W 076°20'0 0.0
2017-Sep-20 12:55N 36°56' W 076°20'0 0.0
2017-Sep-20 12:28N 36°56' W 076°20'0 0.0
2017-Sep-20 11:58N 36°56' W 076°20'0 0.0
2017-Sep-20 11:28N 36°56' W 076°20'0 0.0
2017-Sep-20 10:58N 36°56' W 076°20'0 0.0
2017-Sep-20 10:25N 36°56' W 076°20'0 0.0
2017-Sep-20 09:58N 36°56' W 076°20'0 0.0
2017-Sep-20 09:10N 36°56' W 076°20'0 0.0
2017-Sep-20 08:52N 36°56' W 076°20'0 0.0
2017-Sep-20 08:28N 36°56' W 076°20'0 0.0
2017-Sep-20 03:40N 36°56' W 076°20'0 0.0
2017-Sep-20 03:28N 36°56' W 076°20'0 0.0
2017-Sep-20 02:34N 36°56' W 076°20'  

Dump ship's entire track history